sensor_id;sensor_type;location;lat;lon;timestamp;pressure;altitude;pressure_sealevel;temperature;humidity
63395;BME280;49531;-34.520;150.798;2023-03-03T00:00:12;100846.34;;;23.56;65.12
63395;BME280;49531;-34.520;150.798;2023-03-03T00:02:39;100849.06;;;23.56;65.34
63395;BME280;49531;-34.520;150.798;2023-03-03T00:05:06;100848.81;;;23.58;65.25
63395;BME280;49531;-34.520;150.798;2023-03-03T00:07:34;100852.03;;;23.60;65.26
63395;BME280;49531;-34.520;150.798;2023-03-03T00:10:01;100843.84;;;23.60;65.10
63395;BME280;49531;-34.520;150.798;2023-03-03T00:12:29;100852.56;;;23.62;65.14
63395;BME280;49531;-34.520;150.798;2023-03-03T00:14:57;100856.94;;;23.63;64.97
63395;BME280;49531;-34.520;150.798;2023-03-03T00:17:27;100852.31;;;23.64;65.29
63395;BME280;49531;-34.520;150.798;2023-03-03T00:19:55;100853.13;;;23.64;65.39
63395;BME280;49531;-34.520;150.798;2023-03-03T00:22:29;100853.94;;;23.65;65.10
63395;BME280;49531;-34.520;150.798;2023-03-03T00:25:20;100854.75;;;23.65;64.95
63395;BME280;49531;-34.520;150.798;2023-03-03T00:27:46;100844.38;;;23.67;65.06
63395;BME280;49531;-34.520;150.798;2023-03-03T00:30:23;100859.94;;;23.67;65.22
63395;BME280;49531;-34.520;150.798;2023-03-03T00:32:52;100860.75;;;23.67;64.99
63395;BME280;49531;-34.520;150.798;2023-03-03T00:35:26;100858.84;;;23.68;65.25
63395;BME280;49531;-34.520;150.798;2023-03-03T00:37:57;100859.66;;;23.68;65.07
63395;BME280;49531;-34.520;150.798;2023-03-03T00:40:32;100866.75;;;23.69;65.05
63395;BME280;49531;-34.520;150.798;2023-03-03T00:43:02;100868.09;;;23.72;65.18
63395;BME280;49531;-34.520;150.798;2023-03-03T00:45:48;100866.47;;;23.71;64.93
63395;BME280;49531;-34.520;150.798;2023-03-03T00:48:27;100869.19;;;23.71;65.03
63395;BME280;49531;-34.520;150.798;2023-03-03T00:50:56;100870.00;;;23.71;65.14
63395;BME280;49531;-34.520;150.798;2023-03-03T00:53:26;100866.19;;;23.72;65.04
63395;BME280;49531;-34.520;150.798;2023-03-03T00:55:54;100859.91;;;23.72;65.17
63395;BME280;49531;-34.520;150.798;2023-03-03T00:58:22;100858.00;;;23.72;65.09
63395;BME280;49531;-34.520;150.798;2023-03-03T01:00:51;100866.72;;;23.74;65.00
63395;BME280;49531;-34.520;150.798;2023-03-03T01:03:21;100865.91;;;23.74;65.23
63395;BME280;49531;-34.520;150.798;2023-03-03T01:05:50;100857.44;;;23.75;64.77
63395;BME280;49531;-34.520;150.798;2023-03-03T01:08:18;100859.06;;;23.76;65.16
63395;BME280;49531;-34.520;150.798;2023-03-03T01:10:50;100846.00;;;23.73;64.82
63395;BME280;49531;-34.520;150.798;2023-03-03T01:13:25;100858.25;;;23.76;64.79
63395;BME280;49531;-34.520;150.798;2023-03-03T01:15:53;100853.63;;;23.76;64.96
63395;BME280;49531;-34.520;150.798;2023-03-03T01:18:21;100846.25;;;23.77;64.82
63395;BME280;49531;-34.520;150.798;2023-03-03T01:20:48;100847.06;;;23.77;64.82
63395;BME280;49531;-34.520;150.798;2023-03-03T01:23:15;100853.34;;;23.78;64.97
63395;BME280;49531;-34.520;150.798;2023-03-03T01:25:42;100853.34;;;23.78;64.97
63395;BME280;49531;-34.520;150.798;2023-03-03T01:28:10;100853.06;;;23.79;64.79
63395;BME280;49531;-34.520;150.798;2023-03-03T01:30:37;100849.25;;;23.75;65.04
63395;BME280;49531;-34.520;150.798;2023-03-03T01:33:04;100857.72;;;23.79;64.65
63395;BME280;49531;-34.520;150.798;2023-03-03T01:35:31;100853.88;;;23.80;64.80
63395;BME280;49531;-34.520;150.798;2023-03-03T01:37:58;100847.63;;;23.74;64.01
63395;BME280;49531;-34.520;150.798;2023-03-03T01:40:28;100846.03;;;23.63;64.08
63395;BME280;49531;-34.520;150.798;2023-03-03T01:42:58;100847.44;;;23.55;64.14
63395;BME280;49531;-34.520;150.798;2023-03-03T01:45:27;100842.81;;;23.46;65.12
63395;BME280;49531;-34.520;150.798;2023-03-03T01:48:19;100841.16;;;23.45;65.38
63395;BME280;49531;-34.520;150.798;2023-03-03T01:50:56;100847.16;;;23.47;65.28
63395;BME280;49531;-34.520;150.798;2023-03-03T01:53:33;100843.91;;;23.55;65.13
63395;BME280;49531;-34.520;150.798;2023-03-03T01:56:04;100839.53;;;23.59;64.71
63395;BME280;49531;-34.520;150.798;2023-03-03T01:58:37;100838.13;;;23.61;64.77
63395;BME280;49531;-34.520;150.798;2023-03-03T02:01:10;100845.75;;;23.65;64.57
63395;BME280;49531;-34.520;150.798;2023-03-03T02:03:38;100848.19;;;23.66;64.68
63395;BME280;49531;-34.520;150.798;2023-03-03T02:06:10;100844.38;;;23.67;64.56
63395;BME280;49531;-34.520;150.798;2023-03-03T02:08:47;100833.19;;;23.69;64.46
63395;BME280;49531;-34.520;150.798;2023-03-03T02:11:18;100842.72;;;23.71;64.45
63395;BME280;49531;-34.520;150.798;2023-03-03T02:13:45;100826.91;;;23.68;64.72
63395;BME280;49531;-34.520;150.798;2023-03-03T02:16:12;100830.72;;;23.72;64.45
63395;BME280;49531;-34.520;150.798;2023-03-03T02:18:40;100834.00;;;23.74;64.68
63395;BME280;49531;-34.520;150.798;2023-03-03T02:21:14;100835.63;;;23.75;64.79
63395;BME280;49531;-34.520;150.798;2023-03-03T02:23:59;100829.34;;;23.75;64.37
63395;BME280;49531;-34.520;150.798;2023-03-03T02:26:29;100838.34;;;23.75;64.43
63395;BME280;49531;-34.520;150.798;2023-03-03T02:28:57;100832.63;;;23.77;64.67
63395;BME280;49531;-34.520;150.798;2023-03-03T02:31:28;100833.72;;;23.76;64.66
63395;BME280;49531;-34.520;150.798;2023-03-03T02:33:56;100825.25;;;23.77;64.55
63395;BME280;49531;-34.520;150.798;2023-03-03T02:36:27;100824.44;;;23.77;64.60
63395;BME280;49531;-34.520;150.798;2023-03-03T02:39:08;100829.63;;;23.78;64.46
63395;BME280;49531;-34.520;150.798;2023-03-03T02:41:52;100831.25;;;23.79;64.58
63395;BME280;49531;-34.520;150.798;2023-03-03T02:44:23;100829.34;;;23.80;64.78
63395;BME280;49531;-34.520;150.798;2023-03-03T02:46:52;100829.06;;;23.81;64.63
63395;BME280;49531;-34.520;150.798;2023-03-03T02:49:23;100833.41;;;23.82;64.75
63395;BME280;49531;-34.520;150.798;2023-03-03T02:51:50;100833.41;;;23.82;64.73
63395;BME280;49531;-34.520;150.798;2023-03-03T02:54:21;100834.22;;;23.83;64.40
63395;BME280;49531;-34.520;150.798;2023-03-03T02:56:48;100833.94;;;23.84;64.71
63395;BME280;49531;-34.520;150.798;2023-03-03T02:59:17;100827.69;;;23.84;64.54
63395;BME280;49531;-34.520;150.798;2023-03-03T03:01:46;100821.94;;;23.85;64.66
63395;BME280;49531;-34.520;150.798;2023-03-03T03:04:18;100829.03;;;23.86;64.84
63395;BME280;49531;-34.520;150.798;2023-03-03T03:06:45;100821.66;;;23.87;64.89
63395;BME280;49531;-34.520;150.798;2023-03-03T03:09:14;100824.13;;;23.88;65.01
63395;BME280;49531;-34.520;150.798;2023-03-03T03:11:42;100820.56;;;23.88;64.86
63395;BME280;49531;-34.520;150.798;2023-03-03T03:14:11;100821.94;;;23.90;64.98
63395;BME280;49531;-34.520;150.798;2023-03-03T03:16:38;100824.66;;;23.90;65.18
63395;BME280;49531;-34.520;150.798;2023-03-03T03:19:05;100825.47;;;23.91;64.91
63395;BME280;49531;-34.520;150.798;2023-03-03T03:21:34;100822.47;;;23.92;65.08
63395;BME280;49531;-34.520;150.798;2023-03-03T03:24:01;100818.09;;;23.91;64.98
63395;BME280;49531;-34.520;150.798;2023-03-03T03:26:28;100810.72;;;23.92;65.05
63395;BME280;49531;-34.520;150.798;2023-03-03T03:28:55;100804.19;;;23.93;64.93
63395;BME280;49531;-34.520;150.798;2023-03-03T03:31:24;100813.19;;;23.93;64.63
63395;BME280;49531;-34.520;150.798;2023-03-03T03:33:51;100811.28;;;23.94;65.04
63395;BME280;49531;-34.520;150.798;2023-03-03T03:36:18;100813.72;;;23.96;65.06
63395;BME280;49531;-34.520;150.798;2023-03-03T03:38:45;100816.44;;;23.96;64.95
63395;BME280;49531;-34.520;150.798;2023-03-03T03:41:12;100806.63;;;23.94;65.26
63395;BME280;49531;-34.520;150.798;2023-03-03T03:43:39;100807.75;;;23.88;65.62
63395;BME280;49531;-34.520;150.798;2023-03-03T03:46:07;100810.47;;;23.88;65.87
63395;BME280;49531;-34.520;150.798;2023-03-03T03:48:34;100806.13;;;23.87;65.91
63395;BME280;49531;-34.520;150.798;2023-03-03T03:51:02;100812.38;;;23.93;65.52
63395;BME280;49531;-34.520;150.798;2023-03-03T03:53:29;100803.34;;;23.98;65.65
63395;BME280;49531;-34.520;150.798;2023-03-03T03:55:56;100807.38;;;24.00;65.78
63395;BME280;49531;-34.520;150.798;2023-03-03T03:58:23;100804.91;;;24.04;65.59
63395;BME280;49531;-34.520;150.798;2023-03-03T04:00:51;100807.06;;;24.07;65.33
63395;BME280;49531;-34.520;150.798;2023-03-03T04:03:18;100808.97;;;24.11;65.40
63395;BME280;49531;-34.520;150.798;2023-03-03T04:05:45;100805.41;;;24.16;65.58
63395;BME280;49531;-34.520;150.798;2023-03-03T04:08:13;100800.47;;;24.18;65.33
63395;BME280;49531;-34.520;150.798;2023-03-03T04:10:40;100801.00;;;24.20;65.16
63395;BME280;49531;-34.520;150.798;2023-03-03T04:13:07;100798.81;;;24.22;65.49
63395;BME280;49531;-34.520;150.798;2023-03-03T04:15:34;100799.09;;;24.25;65.52
63395;BME280;49531;-34.520;150.798;2023-03-03T04:18:02;100805.06;;;24.27;65.10
63395;BME280;49531;-34.520;150.798;2023-03-03T04:20:29;100795.50;;;24.30;65.19
63395;BME280;49531;-34.520;150.798;2023-03-03T04:22:57;100794.13;;;24.33;64.87
63395;BME280;49531;-34.520;150.798;2023-03-03T04:25:26;100793.03;;;24.34;65.23
63395;BME280;49531;-34.520;150.798;2023-03-03T04:27:53;100803.38;;;24.37;65.06
63395;BME280;49531;-34.520;150.798;2023-03-03T04:30:21;100796.81;;;24.38;65.14
63395;BME280;49531;-34.520;150.798;2023-03-03T04:32:48;100794.91;;;24.38;64.78
63395;BME280;49531;-34.520;150.798;2023-03-03T04:35:15;100798.69;;;24.42;64.89
63395;BME280;49531;-34.520;150.798;2023-03-03T04:37:42;100798.38;;;24.44;64.74
63395;BME280;49531;-34.520;150.798;2023-03-03T04:40:10;100795.38;;;24.45;64.99
63395;BME280;49531;-34.520;150.798;2023-03-03T04:42:37;100791.25;;;24.48;64.91
63395;BME280;49531;-34.520;150.798;2023-03-03T04:45:05;100796.44;;;24.49;64.68
63395;BME280;49531;-34.520;150.798;2023-03-03T04:47:32;100785.50;;;24.49;64.49
63395;BME280;49531;-34.520;150.798;2023-03-03T04:49:59;100790.69;;;24.51;64.61
63395;BME280;49531;-34.520;150.798;2023-03-03T04:52:27;100789.59;;;24.52;64.46
63395;BME280;49531;-34.520;150.798;2023-03-03T04:54:55;100790.13;;;24.54;64.64
63395;BME280;49531;-34.520;150.798;2023-03-03T04:57:22;100787.09;;;24.55;64.74
63395;BME280;49531;-34.520;150.798;2023-03-03T04:59:49;100784.09;;;24.57;64.53
63395;BME280;49531;-34.520;150.798;2023-03-03T05:02:17;100788.44;;;24.58;64.22
63395;BME280;49531;-34.520;150.798;2023-03-03T05:04:44;100791.19;;;24.58;64.19
63395;BME280;49531;-34.520;150.798;2023-03-03T05:07:11;100796.88;;;24.62;64.17
63395;BME280;49531;-34.520;150.798;2023-03-03T05:09:39;100785.16;;;24.61;64.30
63395;BME280;49531;-34.520;150.798;2023-03-03T05:12:06;100782.13;;;24.63;64.20
63395;BME280;49531;-34.520;150.798;2023-03-03T05:14:33;100788.41;;;24.63;63.85
63395;BME280;49531;-34.520;150.798;2023-03-03T05:17:00;100789.22;;;24.64;64.27
63395;BME280;49531;-34.520;150.798;2023-03-03T05:19:28;100783.25;;;24.62;63.70
63395;BME280;49531;-34.520;150.798;2023-03-03T05:21:55;100786.88;;;24.52;63.98
63395;BME280;49531;-34.520;150.798;2023-03-03T05:24:22;100779.56;;;24.42;64.04
63395;BME280;49531;-34.520;150.798;2023-03-03T05:26:50;100783.38;;;24.41;64.16
63395;BME280;49531;-34.520;150.798;2023-03-03T05:29:17;100781.81;;;24.35;64.45
63395;BME280;49531;-34.520;150.798;2023-03-03T05:31:44;100780.19;;;24.34;64.34
63395;BME280;49531;-34.520;150.798;2023-03-03T05:34:11;100787.84;;;24.32;64.25
63395;BME280;49531;-34.520;150.798;2023-03-03T05:36:38;100789.53;;;24.28;64.44
63395;BME280;49531;-34.520;150.798;2023-03-03T05:39:06;100794.97;;;24.23;64.63
63395;BME280;49531;-34.520;150.798;2023-03-03T05:41:33;100794.47;;;24.16;64.89
63395;BME280;49531;-34.520;150.798;2023-03-03T05:44:02;100799.13;;;24.15;64.64
63395;BME280;49531;-34.520;150.798;2023-03-03T05:46:30;100790.16;;;24.10;64.88
63395;BME280;49531;-34.520;150.798;2023-03-03T05:48:57;100789.91;;;24.06;64.97
63395;BME280;49531;-34.520;150.798;2023-03-03T05:51:24;100785.00;;;24.03;65.01
63395;BME280;49531;-34.520;150.798;2023-03-03T05:53:51;100792.44;;;23.98;65.80
63395;BME280;49531;-34.520;150.798;2023-03-03T05:56:18;100801.72;;;23.97;65.83
63395;BME280;49531;-34.520;150.798;2023-03-03T05:58:45;100792.97;;;23.94;65.93
63395;BME280;49531;-34.520;150.798;2023-03-03T06:01:12;100794.38;;;23.92;66.07
63395;BME280;49531;-34.520;150.798;2023-03-03T06:03:40;100790.00;;;23.91;66.18
63395;BME280;49531;-34.520;150.798;2023-03-03T06:06:07;100789.22;;;23.85;66.53
63395;BME280;49531;-34.520;150.798;2023-03-03T06:08:34;100796.00;;;23.93;66.68
63395;BME280;49531;-34.520;150.798;2023-03-03T06:11:02;100787.84;;;23.88;66.91
63395;BME280;49531;-34.520;150.798;2023-03-03T06:13:29;100794.38;;;23.87;66.98
63395;BME280;49531;-34.520;150.798;2023-03-03T06:15:56;100799.06;;;23.81;66.98
63395;BME280;49531;-34.520;150.798;2023-03-03T06:18:23;100794.16;;;23.78;67.66
63395;BME280;49531;-34.520;150.798;2023-03-03T06:20:52;100793.63;;;23.76;68.67
63395;BME280;49531;-34.520;150.798;2023-03-03T06:23:19;100788.72;;;23.73;68.80
63395;BME280;49531;-34.520;150.798;2023-03-03T06:25:47;100790.91;;;23.71;68.79
63395;BME280;49531;-34.520;150.798;2023-03-03T06:28:14;100783.84;;;23.65;68.44
63395;BME280;49531;-34.520;150.798;2023-03-03T06:30:41;100791.50;;;23.63;68.69
63395;BME280;49531;-34.520;150.798;2023-03-03T06:33:08;100798.63;;;23.59;70.45
63395;BME280;49531;-34.520;150.798;2023-03-03T06:35:36;100798.63;;;23.54;70.84
63395;BME280;49531;-34.520;150.798;2023-03-03T06:38:03;100794.53;;;23.46;71.71
63395;BME280;49531;-34.520;150.798;2023-03-03T06:40:30;100798.09;;;23.47;71.24
63395;BME280;49531;-34.520;150.798;2023-03-03T06:42:57;100797.28;;;23.41;71.49
63395;BME280;49531;-34.520;150.798;2023-03-03T06:45:24;100788.28;;;23.41;71.37
63395;BME280;49531;-34.520;150.798;2023-03-03T06:47:51;100801.91;;;23.46;70.81
63395;BME280;49531;-34.520;150.798;2023-03-03T06:50:20;100799.19;;;23.41;70.83
63395;BME280;49531;-34.520;150.798;2023-03-03T06:52:47;100795.66;;;23.35;71.13
63395;BME280;49531;-34.520;150.798;2023-03-03T06:55:22;100791.59;;;23.33;71.30
63395;BME280;49531;-34.520;150.798;2023-03-03T06:57:49;100785.06;;;23.28;71.65
63395;BME280;49531;-34.520;150.798;2023-03-03T07:00:23;100792.41;;;23.33;71.17
63395;BME280;49531;-34.520;150.798;2023-03-03T07:02:58;100793.22;;;23.34;71.36
63395;BME280;49531;-34.520;150.798;2023-03-03T07:05:27;100789.41;;;23.29;71.17
63395;BME280;49531;-34.520;150.798;2023-03-03T07:07:56;100794.88;;;23.29;71.26
63395;BME280;49531;-34.520;150.798;2023-03-03T07:10:27;100789.94;;;23.32;70.23
63395;BME280;49531;-34.520;150.798;2023-03-03T07:13:01;100795.13;;;23.33;70.25
63395;BME280;49531;-34.520;150.798;2023-03-03T07:15:37;100802.19;;;23.39;69.90
63395;BME280;49531;-34.520;150.798;2023-03-03T07:20:58;100801.41;;;23.28;69.32
63395;BME280;49531;-34.520;150.798;2023-03-03T07:23:32;100799.50;;;23.24;69.32
63395;BME280;49531;-34.520;150.798;2023-03-03T07:26:15;100796.22;;;23.27;68.81
63395;BME280;49531;-34.520;150.798;2023-03-03T07:28:49;100795.41;;;23.26;69.05
63395;BME280;49531;-34.520;150.798;2023-03-03T07:31:28;100805.22;;;23.27;69.08
63395;BME280;49531;-34.520;150.798;2023-03-03T07:33:59;100799.50;;;23.24;68.96
63395;BME280;49531;-34.520;150.798;2023-03-03T07:36:29;100791.59;;;23.22;69.37
63395;BME280;49531;-34.520;150.798;2023-03-03T07:38:59;100806.31;;;23.21;68.48
63395;BME280;49531;-34.520;150.798;2023-03-03T07:41:27;100804.13;;;23.23;68.54
63395;BME280;49531;-34.520;150.798;2023-03-03T07:44:05;100811.78;;;23.21;68.77
63395;BME280;49531;-34.520;150.798;2023-03-03T07:46:41;100802.28;;;23.19;68.54
63395;BME280;49531;-34.520;150.798;2023-03-03T07:49:21;100797.91;;;23.18;68.76
63395;BME280;49531;-34.520;150.798;2023-03-03T07:51:53;100809.06;;;23.21;68.47
63395;BME280;49531;-34.520;150.798;2023-03-03T07:54:42;100805.53;;;23.16;68.44
63395;BME280;49531;-34.520;150.798;2023-03-03T07:57:24;100803.88;;;23.20;68.15
63395;BME280;49531;-34.520;150.798;2023-03-03T08:01:18;100802.53;;;23.17;68.33
63395;BME280;49531;-34.520;150.798;2023-03-03T08:02:57;100809.31;;;23.20;68.13
63395;BME280;49531;-34.520;150.798;2023-03-03T08:05:30;100804.72;;;23.15;68.02
63395;BME280;49531;-34.520;150.798;2023-03-03T08:08:34;100813.44;;;23.17;68.20
63395;BME280;49531;-34.520;150.798;2023-03-03T08:11:02;100813.19;;;23.19;68.26
63395;BME280;49531;-34.520;150.798;2023-03-03T08:13:41;100817.00;;;23.18;68.05
63395;BME280;49531;-34.520;150.798;2023-03-03T08:16:32;100820.53;;;23.18;68.25
63395;BME280;49531;-34.520;150.798;2023-03-03T08:19:04;100819.72;;;23.13;68.12
63395;BME280;49531;-34.520;150.798;2023-03-03T08:21:33;100826.25;;;23.12;68.29
63395;BME280;49531;-34.520;150.798;2023-03-03T08:24:01;100828.44;;;23.10;68.38
63395;BME280;49531;-34.520;150.798;2023-03-03T08:26:28;100828.16;;;23.11;68.41
63395;BME280;49531;-34.520;150.798;2023-03-03T08:28:55;100839.34;;;23.15;68.07
63395;BME280;49531;-34.520;150.798;2023-03-03T08:31:22;100833.63;;;23.11;68.45
63395;BME280;49531;-34.520;150.798;2023-03-03T08:33:50;100839.88;;;23.07;68.78
63395;BME280;49531;-34.520;150.798;2023-03-03T08:36:17;100840.44;;;23.04;68.97
63395;BME280;49531;-34.520;150.798;2023-03-03T08:38:44;100853.78;;;23.00;69.77
63395;BME280;49531;-34.520;150.798;2023-03-03T08:41:12;100855.97;;;22.93;71.35
63395;BME280;49531;-34.520;150.798;2023-03-03T08:43:39;100857.31;;;23.06;70.31
63395;BME280;49531;-34.520;150.798;2023-03-03T08:46:07;100853.22;;;23.13;69.69
63395;BME280;49531;-34.520;150.798;2023-03-03T08:48:35;100861.09;;;23.20;69.64
63395;BME280;49531;-34.520;150.798;2023-03-03T08:51:02;100862.47;;;23.22;69.43
63395;BME280;49531;-34.520;150.798;2023-03-03T08:53:29;100859.72;;;23.27;69.20
63395;BME280;49531;-34.520;150.798;2023-03-03T08:55:59;100866.81;;;23.28;69.17
63395;BME280;49531;-34.520;150.798;2023-03-03T08:58:26;100865.44;;;23.31;69.03
63395;BME280;49531;-34.520;150.798;2023-03-03T09:00:54;100875.00;;;23.34;68.82
63395;BME280;49531;-34.520;150.798;2023-03-03T09:03:21;100879.06;;;23.36;68.89
63395;BME280;49531;-34.520;150.798;2023-03-03T09:05:48;100879.88;;;23.37;68.84
63395;BME280;49531;-34.520;150.798;2023-03-03T09:08:15;100876.88;;;23.38;68.50
63395;BME280;49531;-34.520;150.798;2023-03-03T09:10:42;100879.34;;;23.40;68.49
63395;BME280;49531;-34.520;150.798;2023-03-03T09:13:14;100886.97;;;23.43;68.41
63395;BME280;49531;-34.520;150.798;2023-03-03T09:15:42;100878.78;;;23.43;68.32
63395;BME280;49531;-34.520;150.798;2023-03-03T09:18:22;100885.88;;;23.44;68.50
63395;BME280;49531;-34.520;150.798;2023-03-03T09:20:53;100886.69;;;23.44;68.35
63395;BME280;49531;-34.520;150.798;2023-03-03T09:23:34;100882.06;;;23.45;68.29
63395;BME280;49531;-34.520;150.798;2023-03-03T09:26:23;100884.78;;;23.45;68.34
63395;BME280;49531;-34.520;150.798;2023-03-03T09:28:55;100889.69;;;23.48;68.05
63395;BME280;49531;-34.520;150.798;2023-03-03T09:31:30;100895.13;;;23.48;68.26
63395;BME280;49531;-34.520;150.798;2023-03-03T09:34:02;100894.06;;;23.49;68.09
63395;BME280;49531;-34.520;150.798;2023-03-03T09:36:38;100897.31;;;23.51;68.23
63395;BME280;49531;-34.520;150.798;2023-03-03T09:39:21;100898.41;;;23.50;68.20
63395;BME280;49531;-34.520;150.798;2023-03-03T09:42:16;100898.41;;;23.50;67.93
63395;BME280;49531;-34.520;150.798;2023-03-03T09:45:07;100909.03;;;23.51;67.74
63395;BME280;49531;-34.520;150.798;2023-03-03T09:48:05;100910.69;;;23.52;68.05
63395;BME280;49531;-34.520;150.798;2023-03-03T09:53:25;100920.53;;;23.53;67.72
63395;BME280;49531;-34.520;150.798;2023-03-03T09:56:03;100926.78;;;23.54;68.00
63395;BME280;49531;-34.520;150.798;2023-03-03T09:58:52;100925.69;;;23.55;67.83
63395;BME280;49531;-34.520;150.798;2023-03-03T10:01:47;100929.53;;;23.54;68.00
63395;BME280;49531;-34.520;150.798;2023-03-03T10:04:32;100929.53;;;23.54;67.78
63395;BME280;49531;-34.520;150.798;2023-03-03T10:07:20;100940.97;;;23.56;68.08
63395;BME280;49531;-34.520;150.798;2023-03-03T10:18:38;100936.59;;;23.55;68.07
63395;BME280;49531;-34.520;150.798;2023-03-03T10:21:18;100933.06;;;23.54;67.69
63395;BME280;49531;-34.520;150.798;2023-03-03T10:23:55;100942.88;;;23.55;68.03
63395;BME280;49531;-34.520;150.798;2023-03-03T10:26:41;100949.16;;;23.56;67.85
63395;BME280;49531;-34.520;150.798;2023-03-03T10:29:23;100942.06;;;23.55;67.64
63395;BME280;49531;-34.520;150.798;2023-03-03T10:32:06;100949.16;;;23.56;67.63
63395;BME280;49531;-34.520;150.798;2023-03-03T10:37:48;100952.97;;;23.55;67.51
63395;BME280;49531;-34.520;150.798;2023-03-03T10:40:37;100942.06;;;23.55;67.52
63395;BME280;49531;-34.520;150.798;2023-03-03T10:43:21;100946.97;;;23.53;67.81
63395;BME280;49531;-34.520;150.798;2023-03-03T10:46:19;100948.59;;;23.54;67.78
63395;BME280;49531;-34.520;150.798;2023-03-03T10:49:01;100945.88;;;23.54;67.67
63395;BME280;49531;-34.520;150.798;2023-03-03T10:52:07;100945.88;;;23.54;67.59
63395;BME280;49531;-34.520;150.798;2023-03-03T10:55:03;100945.06;;;23.53;67.63
63395;BME280;49531;-34.520;150.798;2023-03-03T10:57:52;100941.50;;;23.53;67.29
63395;BME280;49531;-34.520;150.798;2023-03-03T11:00:27;100944.25;;;23.53;67.29
63395;BME280;49531;-34.520;150.798;2023-03-03T11:06:05;100945.31;;;23.52;67.46
63395;BME280;49531;-34.520;150.798;2023-03-03T11:08:51;100939.84;;;23.52;67.36
63395;BME280;49531;-34.520;150.798;2023-03-03T11:11:35;100944.75;;;23.50;67.38
63395;BME280;49531;-34.520;150.798;2023-03-03T11:14:26;100940.94;;;23.51;66.83
63395;BME280;49531;-34.520;150.798;2023-03-03T11:17:13;100946.41;;;23.51;67.07
63395;BME280;49531;-34.520;150.798;2023-03-03T11:19:58;100940.13;;;23.50;67.16
63395;BME280;49531;-34.520;150.798;2023-03-03T11:22:46;100933.84;;;23.50;66.99
63395;BME280;49531;-34.520;150.798;2023-03-03T11:25:33;100917.50;;;23.45;67.32
63395;BME280;49531;-34.520;150.798;2023-03-03T11:31:30;100932.22;;;23.49;66.96
63395;BME280;49531;-34.520;150.798;2023-03-03T11:34:33;100923.50;;;23.47;66.73
63395;BME280;49531;-34.520;150.798;2023-03-03T11:37:07;100917.22;;;23.46;66.77
63395;BME280;49531;-34.520;150.798;2023-03-03T11:39:38;100915.59;;;23.45;66.89
63395;BME280;49531;-34.520;150.798;2023-03-03T11:42:20;100916.41;;;23.46;66.60
63395;BME280;49531;-34.520;150.798;2023-03-03T11:45:00;100917.50;;;23.45;66.66
63395;BME280;49531;-34.520;150.798;2023-03-03T11:47:37;100903.88;;;23.45;66.89
63395;BME280;49531;-34.520;150.798;2023-03-03T11:50:15;100909.31;;;23.45;66.68
63395;BME280;49531;-34.520;150.798;2023-03-03T11:53:14;100903.06;;;23.44;66.78
63395;BME280;49531;-34.520;150.798;2023-03-03T11:55:51;100891.59;;;23.42;66.95
63395;BME280;49531;-34.520;150.798;2023-03-03T11:58:30;100900.59;;;23.43;67.11
63395;BME280;49531;-34.520;150.798;2023-03-03T12:01:18;100896.25;;;23.42;66.69
63395;BME280;49531;-34.520;150.798;2023-03-03T12:03:55;100909.06;;;23.41;66.83
63395;BME280;49531;-34.520;150.798;2023-03-03T12:06:52;100908.22;;;23.41;66.79
63395;BME280;49531;-34.520;150.798;2023-03-03T12:09:56;100899.50;;;23.39;66.55
63395;BME280;49531;-34.520;150.798;2023-03-03T12:12:36;100906.59;;;23.40;66.70
63395;BME280;49531;-34.520;150.798;2023-03-03T12:15:25;100898.97;;;23.37;66.67
63395;BME280;49531;-34.520;150.798;2023-03-03T12:18:16;100900.88;;;23.36;66.61
63395;BME280;49531;-34.520;150.798;2023-03-03T12:21:13;100900.06;;;23.36;66.65
63395;BME280;49531;-34.520;150.798;2023-03-03T12:23:58;100897.34;;;23.36;66.85
63395;BME280;49531;-34.520;150.798;2023-03-03T12:26:46;100895.69;;;23.35;66.55
63395;BME280;49531;-34.520;150.798;2023-03-03T12:29:30;100888.63;;;23.34;66.41
63395;BME280;49531;-34.520;150.798;2023-03-03T12:32:17;100894.06;;;23.34;66.15
63395;BME280;49531;-34.520;150.798;2023-03-03T12:34:57;100899.53;;;23.34;66.60
63395;BME280;49531;-34.520;150.798;2023-03-03T12:37:45;100884.25;;;23.33;66.43
63395;BME280;49531;-34.520;150.798;2023-03-03T12:40:25;100889.97;;;23.31;66.20
63395;BME280;49531;-34.520;150.798;2023-03-03T12:43:05;100882.63;;;23.32;66.32
63395;BME280;49531;-34.520;150.798;2023-03-03T12:45:59;100886.44;;;23.31;66.27
63395;BME280;49531;-34.520;150.798;2023-03-03T12:48:42;100880.44;;;23.28;66.19
63395;BME280;49531;-34.520;150.798;2023-03-03T12:51:31;100878.53;;;23.29;65.98
63395;BME280;49531;-34.520;150.798;2023-03-03T12:56:57;100869.81;;;23.27;66.44
63395;BME280;49531;-34.520;150.798;2023-03-03T12:59:49;100877.72;;;23.28;65.99
63395;BME280;49531;-34.520;150.798;2023-03-03T13:05:31;100863.53;;;23.26;65.89
63395;BME280;49531;-34.520;150.798;2023-03-03T13:08:24;100853.75;;;23.25;66.10
63395;BME280;49531;-34.520;150.798;2023-03-03T13:11:13;100858.66;;;23.23;66.01
63395;BME280;49531;-34.520;150.798;2023-03-03T13:13:57;100851.28;;;23.24;66.09
63395;BME280;49531;-34.520;150.798;2023-03-03T13:16:42;100850.75;;;23.22;66.06
63395;BME280;49531;-34.520;150.798;2023-03-03T13:19:17;100848.84;;;23.22;66.30
63395;BME280;49531;-34.520;150.798;2023-03-03T13:21:54;100849.94;;;23.21;66.19